Terminal Aerodrome Forecast
Issued by NWS

Home | Current Version | Previous Version | Text Only | Print | Product List | Glossary On
Versions: 1 2 3 4 5 6 7 8 9 10 11 12 13 14 15 16 17 18 19 20 21 22 23 24 25 26 27 28 29 30 31 32 33 34 35 36 37 38 39 40 41 42 43 44 45 46 47
000
FTUS45 KSLC 031121
TAFLGU
TAF
KLGU 031121Z 0312/0412 VRB05KT P6SM SCT120
     FM031900 VRB05KT P6SM VCSH SCT100 BKN200
     FM040500 VRB05KT P6SM FEW100 BKN200=

USA.gov is the U.S. government's official web portal to all federal, state and local government web resources and services.